HBBA/BJM METAR and TAF weather

Enter ICAO airport designator
Station Type Date Time Source
HBBA METAR 2018/11/28 07:00 UTC NOAA

HBBA 280700Z 00000KT 9999 FEW010 BKN100 26/21 Q1014


Station Type Date Time Source
HBBA Decoded METAR 2018/11/28 07:00 UTC NOAA

Bujumbura, Burundi (HBBA) 03-19S 029-19E 783M
Nov 28, 2018 - 02:00 AM EST / 2018.11.28 0700 UTC
Wind: Calm:0
Visibility: greater than 7 mile(s):0
Sky conditions: mostly cloudy
Temperature: 78 F (26 C)
Dew Point: 69 F (21 C)
Relative Humidity: 73%
Pressure (altimeter): 29.94 in. Hg (1014 hPa)
ob: HBBA 280700Z 00000KT 9999 FEW010 BKN100 26/21 Q1014
cycle: 7

Station Type Date Time Source
HBBA TAF 2018/12/12 12:57 UTC NOAA

TAF TAF HBBA 121100Z 1212/1318 18010G25KT 9999 FEW030 BKN100
BECMG1217/1219 00000KT CAVOK
BECMG1302/1304 36002KT
BECMG1307/1309 18010G25KT 9999 FEW030 BKN100 PROB30
TEMPO1313/1315 8000 SHRA OR TSRA


Example: see airport list